EDT,Max TemperatureF,Mean TemperatureF,Min TemperatureF,Max Dew PointF,MeanDew PointF,Min DewpointF,Max Humidity, Mean Humidity, Min Humidity, Max Sea Level PressureIn, Mean Sea Level PressureIn, Min Sea Level PressureIn, Max VisibilityMiles, Mean VisibilityMiles, Min VisibilityMiles, Max Wind SpeedMPH, Mean Wind SpeedMPH, Max Gust SpeedMPH,PrecipitationIn, CloudCover, Events, WindDirDegrees
2012-10-1,90,80,71,74,71,67,87,78,53,29.81,29.77,29.73,10,10,7,15,7,23,0.12,4,Rain-Thunderstorm,188
2012-10-2,90,82,75,73,70,67,89,74,52,30.01,29.87,29.78,10,10,5,18,9,32,0.03,5,Rain,214
2012-10-3,84,78,75,72,71,68,89,81,65,30.18,30.10,30.01,10,8,2,12,4,17,0.22,7,Rain,192
2012-10-4,86,78,71,74,71,68,94,83,67,30.22,30.18,30.14,10,6,0,10,2,,0.52,5,Fog-Rain-Thunderstorm,35
2012-10-5,84,80,75,73,71,69,87,75,63,30.15,30.08,30.01,10,10,6,15,8,,0.10,5,Rain,76
2012-10-6,84,78,75,73,71,68,89,77,63,30.01,29.97,29.91,10,10,2,12,4,,0.20,3,Rain-Thunderstorm,62
2012-10-7,86,78,72,72,70,68,88,74,58,30.01,29.97,29.94,10,10,9,15,4,,0.00,3,Thunderstorm,173
2012-10-8,84,78,70,73,70,65,85,78,65,30.05,30.00,29.95,10,10,3,13,3,18,0.11,4,Rain-Thunderstorm,84
2012-10-9,70,67,64,65,61,59,87,81,71,30.12,30.07,30.02,10,7,3,13,9,20,0.00,7,,3
2012-10-10,79,68,62,62,60,57,87,76,56,30.16,30.10,30.06,10,8,4,9,4,,0.01,1,,329
2012-10-11,79,72,66,64,60,55,84,67,47,30.23,30.18,30.12,10,10,7,13,4,16,0.01,1,,24
2012-10-12,80,74,68,64,60,57,83,63,45,30.23,30.19,30.15,10,10,8,10,5,,0.00,1,,44
2012-10-13,84,78,73,68,63,59,79,62,47,30.26,30.21,30.17,10,9,2,22,13,28,0.31,4,Rain,59
2012-10-14,84,78,73,68,66,63,83,69,56,30.18,30.12,30.03,10,7,1,22,13,31,0.68,6,Rain,118
2012-10-15,84,76,71,69,66,63,84,70,51,30.01,29.91,29.82,10,10,8,8,4,,0.00,4,,250
2012-10-16,78,70,64,63,55,51,71,56,47,29.92,29.88,29.86,10,10,10,15,8,22,0.00,3,,29
2012-10-17,79,74,69,64,59,52,75,62,53,29.94,29.89,29.85,10,10,10,12,8,,0.00,5,,74
2012-10-18,82,75,68,69,66,61,88,77,58,29.89,29.85,29.80,10,9,5,13,8,,0.00,5,,199
2012-10-19,79,74,68,67,61,52,84,69,40,29.89,29.85,29.80,10,10,10,9,5,,0.00,4,Rain,323
2012-10-20,80,70,62,63,48,39,78,49,24,29.98,29.90,29.86,10,10,10,8,3,,0.00,0,,295
2012-10-21,77,67,59,59,52,48,72,55,38,30.11,30.05,29.97,10,10,10,14,5,,0.00,0,,34
2012-10-22,79,75,71,60,58,56,66,58,45,30.17,30.12,30.08,10,10,10,17,14,23,0.00,3,,52
2012-10-23,82,77,73,63,60,58,71,56,47,30.13,30.09,30.06,10,10,10,15,12,,0.00,2,,73
2012-10-24,82,78,73,67,63,59,74,62,51,30.10,30.05,30.01,10,10,10,14,10,,0.00,2,Rain,72
2012-10-25,82,78,75,69,66,64,74,67,58,30.00,29.95,29.92,10,10,9,20,13,26,0.00,6,Rain,71
2012-10-26,78,75,73,68,64,59,78,68,59,29.89,29.79,29.70,10,9,6,26,19,38,0.00,7,Rain,26
2012-10-27,72,70,68,63,59,57,73,68,61,29.69,29.61,29.57,10,10,10,25,15,36,0.00,7,,348
2012-10-28,75,68,60,57,52,48,72,60,41,29.75,29.68,29.63,10,10,10,14,7,25,0.00,1,,292
2012-10-29,64,57,50,45,37,31,63,49,30,29.81,29.75,29.68,10,10,10,15,10,25,0.00,1,,295
2012-10-30,64,56,48,31,27,22,46,35,22,29.90,29.79,29.73,10,10,10,18,12,29,0.00,0,,273
2012-10-31,72,62,51,48,37,30,60,42,27,29.99,29.93,29.87,10,10,10,14,9,21,0.00,1,,262